»·PEaware :: PAA40 KSNA-KSLC

PAA40 :: KSNA-KSLC

FLIGHT INFORMATION

Flight Status: Arrived
Operator:
PanAm
More flights by this operator :: More flights under this callsign
Pilot: Alex K. (14822)
Aircraft: BOEING 737-200
(B732)
More flights by this aircraft type
Origin: KSNA John Wayne-Orange Co
United States
Destination: KSLC Salt Lake City Intl
United States
More flights between these airports :: More routes between these airports
Route: +MUSEL8 DAG J9 MLF JAMMN5
File this flight plan on PilotEdge
Remarks: PBN / A1B2 NAV / RNVD1E2A1 DAT / V DOF / 180203 REG / N275SB EET / KZLC0048 RMK / NRP SIMBRIEF
Altitude:
(Current/Filed)
31,000ft
Speed:
(Current/Filed)
437kts
Departed: 02-Feb-18 05:38 PM
Arrived: 02-Feb-18 07:11 PM
Distance/Time
Traveled:
511nm/1:33
Distance/Time
To Go:
Arrived

Flight Plot

Page will automatically refresh every two minutes.

Flight plan parsing failed; only flown route is shown


Map Options




Map Legend


Flown Route
Filed Route
Departure Airport
Arrival Airport
Navaid (VOR, NDB)
Fix

Horizontal Profiles

Position Reports

Time Latitude Longitude Heading Altitude Ground
Speed
02-Feb-18 17:07 33.676732 -117.863965 117 65ft 0kts
02-Feb-18 17:08 33.676732 -117.863965 117 65ft 0kts
02-Feb-18 17:09 33.676732 -117.863965 117 65ft 0kts
02-Feb-18 17:10 33.676732 -117.863965 117 65ft 0kts
02-Feb-18 17:11 33.676732 -117.863965 117 65ft 0kts
02-Feb-18 17:12 33.676732 -117.863965 117 65ft 0kts
02-Feb-18 17:13 33.676732 -117.863965 117 65ft 0kts
02-Feb-18 17:14 33.676732 -117.863965 117 65ft 0kts
02-Feb-18 17:15 33.676732 -117.863965 117 65ft 0kts
02-Feb-18 17:16 33.676732 -117.863965 117 65ft 0kts
02-Feb-18 17:17 33.676732 -117.863965 117 65ft 0kts
02-Feb-18 17:18 33.676732 -117.863965 117 65ft 0kts
02-Feb-18 17:19 33.676732 -117.863965 117 65ft 0kts
02-Feb-18 17:20 33.676732 -117.863965 117 65ft 0kts
02-Feb-18 17:21 33.676732 -117.863965 117 65ft 0kts
02-Feb-18 17:22 33.676732 -117.863965 117 65ft 0kts
02-Feb-18 17:23 33.676732 -117.863965 117 65ft 0kts
02-Feb-18 17:24 33.676732 -117.863965 117 65ft 0kts
02-Feb-18 17:25 33.676732 -117.863965 117 65ft 0kts
02-Feb-18 17:26 33.676732 -117.863965 117 65ft 0kts
02-Feb-18 17:27 33.676732 -117.863965 117 65ft 0kts
02-Feb-18 17:28 33.676732 -117.863965 117 65ft 0kts
02-Feb-18 17:29 33.676732 -117.863965 117 65ft 0kts
02-Feb-18 17:31 33.676732 -117.863965 117 65ft 0kts
02-Feb-18 17:31 33.676732 -117.863965 117 65ft 0kts
02-Feb-18 17:32 33.676732 -117.863965 117 65ft 0kts
02-Feb-18 17:33 33.676732 -117.863965 117 65ft 0kts
02-Feb-18 17:34 33.676732 -117.863965 117 65ft 0kts
02-Feb-18 17:35 33.676732 -117.863965 117 65ft 0kts
02-Feb-18 17:36 33.676730 -117.863961 117 65ft 0kts
02-Feb-18 17:37 33.676890 -117.864436 87 65ft 2kts
02-Feb-18 17:38 33.676684 -117.864827 28 65ft 0kts
02-Feb-18 17:39 33.676685 -117.864827 28 65ft 0kts
02-Feb-18 17:40 33.676758 -117.864779 28 65ft 3kts
02-Feb-18 17:41 33.679818 -117.862841 27 65ft 11kts
02-Feb-18 17:42 33.680661 -117.863123 300 65ft 0kts
02-Feb-18 17:43 33.681395 -117.865173 226 65ft 8kts
02-Feb-18 17:44 33.668648 -117.873401 208 654ft 126kts
02-Feb-18 17:45 33.620249 -117.890288 188 2020ft 257kts
02-Feb-18 17:46 33.547912 -117.902875 188 6354ft 272kts
02-Feb-18 17:47 33.491285 -117.950504 259 9556ft 283kts
02-Feb-18 17:48 33.479932 -118.046947 261 12078ft 306kts
02-Feb-18 17:49 33.467169 -118.142567 261 14097ft 325kts
02-Feb-18 17:50 33.504129 -118.230136 343 16267ft 327kts
02-Feb-18 17:51 33.589069 -118.195612 30 17942ft 352kts
02-Feb-18 17:52 33.672429 -118.134657 29 19740ft 362kts
02-Feb-18 17:53 33.757479 -118.073115 29 21200ft 371kts
02-Feb-18 17:54 33.842390 -118.002109 36 22491ft 381kts
02-Feb-18 17:55 33.927068 -117.924102 35 23826ft 390kts
02-Feb-18 17:56 34.013661 -117.844468 34 25283ft 398kts
02-Feb-18 17:57 34.100951 -117.762318 45 26506ft 410kts
02-Feb-18 17:58 34.175688 -117.658650 46 27630ft 418kts
02-Feb-18 17:59 34.252328 -117.554687 45 28635ft 425kts
02-Feb-18 18:00 34.333293 -117.449573 44 29520ft 431kts
02-Feb-18 18:01 34.412419 -117.343122 46 30308ft 438kts
02-Feb-18 18:02 34.489079 -117.236008 46 30979ft 443kts
02-Feb-18 18:03 34.571305 -117.122451 46 31187ft 458kts
02-Feb-18 18:04 34.656627 -117.004486 46 31186ft 473kts
02-Feb-18 18:05 34.743843 -116.883393 46 31156ft 479kts
02-Feb-18 18:06 34.830753 -116.762247 46 31155ft 474kts
02-Feb-18 18:07 34.916919 -116.641925 46 31155ft 472kts
02-Feb-18 18:08 35.003041 -116.521386 45 31182ft 471kts
02-Feb-18 18:09 35.088486 -116.401268 44 31182ft 470kts
02-Feb-18 18:10 35.182530 -116.296014 42 31184ft 469kts
02-Feb-18 18:11 35.272671 -116.180757 44 31183ft 471kts
02-Feb-18 18:12 35.362959 -116.065835 42 31184ft 471kts
02-Feb-18 18:13 35.453689 -115.952356 42 31184ft 471kts
02-Feb-18 18:14 35.545172 -115.837794 42 31183ft 471kts
02-Feb-18 18:15 35.636699 -115.722776 42 31184ft 472kts
02-Feb-18 18:16 35.727845 -115.607849 42 31184ft 472kts
02-Feb-18 18:17 35.819440 -115.491967 42 31173ft 473kts
02-Feb-18 18:18 35.910747 -115.376062 42 31167ft 473kts
02-Feb-18 18:19 36.000334 -115.260210 43 31180ft 473kts
02-Feb-18 18:20 36.091319 -115.143533 43 31153ft 473kts
02-Feb-18 18:21 36.182378 -115.028023 42 31157ft 473kts
02-Feb-18 18:22 36.273213 -114.911434 42 31130ft 474kts
02-Feb-18 18:23 36.363868 -114.794380 42 31130ft 473kts
02-Feb-18 18:24 36.454609 -114.676755 42 31131ft 473kts
02-Feb-18 18:25 36.545447 -114.558573 42 31131ft 474kts
02-Feb-18 18:26 36.636319 -114.439900 42 31178ft 473kts
02-Feb-18 18:27 36.726085 -114.321538 44 31181ft 474kts
02-Feb-18 18:28 36.830309 -114.229205 18 31198ft 461kts
02-Feb-18 18:29 36.944535 -114.154933 26 31180ft 465kts
02-Feb-18 18:30 37.054513 -114.070201 27 31180ft 466kts
02-Feb-18 18:31 37.164235 -113.984458 27 31193ft 467kts
02-Feb-18 18:32 37.274113 -113.897146 27 31185ft 469kts
02-Feb-18 18:33 37.383710 -113.809526 27 31185ft 470kts
02-Feb-18 18:34 37.493007 -113.721796 27 31265ft 469kts
02-Feb-18 18:35 37.602703 -113.633441 27 31266ft 470kts
02-Feb-18 18:36 37.709432 -113.547210 27 31266ft 471kts
02-Feb-18 18:37 37.819102 -113.458303 27 31266ft 471kts
02-Feb-18 18:38 37.927209 -113.370248 26 31262ft 455kts
02-Feb-18 18:39 38.031906 -113.283038 27 31255ft 448kts
02-Feb-18 18:40 38.134264 -113.199079 26 31265ft 442kts
02-Feb-18 18:41 38.236858 -113.115160 26 31265ft 439kts
02-Feb-18 18:42 38.338422 -113.031417 26 31265ft 436kts
02-Feb-18 18:43 38.439520 -112.947695 26 31265ft 435kts
02-Feb-18 18:44 38.541799 -112.869333 8 31257ft 417kts
02-Feb-18 18:45 38.654212 -112.843716 10 31265ft 417kts
02-Feb-18 18:46 38.763751 -112.791974 13 31264ft 423kts
02-Feb-18 18:47 38.872834 -112.737811 12 31291ft 422kts
02-Feb-18 18:48 38.982602 -112.680096 13 31293ft 432kts
02-Feb-18 18:49 39.093795 -112.619920 14 31292ft 438kts
02-Feb-18 18:50 39.202568 -112.561204 14 30825ft 440kts
02-Feb-18 18:51 39.314302 -112.500052 14 29787ft 434kts
02-Feb-18 18:52 39.427208 -112.465086 5 28434ft 412kts
02-Feb-18 18:53 39.536647 -112.430681 6 26906ft 399kts
02-Feb-18 18:54 39.643298 -112.396036 6 25024ft 389kts
02-Feb-18 18:55 39.746145 -112.362123 7 22280ft 376kts
02-Feb-18 18:56 39.845220 -112.329127 8 19739ft 363kts
02-Feb-18 18:57 39.940785 -112.297373 8 17424ft 351kts
02-Feb-18 18:58 40.032436 -112.267265 8 17297ft 350kts
02-Feb-18 18:59 40.130886 -112.233894 10 17298ft 380kts
02-Feb-18 19:00 40.234824 -112.197659 10 17103ft 382kts
02-Feb-18 19:01 40.337058 -112.162080 10 15386ft 380kts
02-Feb-18 19:02 40.437168 -112.134296 4 14527ft 354kts
02-Feb-18 19:03 40.521652 -112.100305 16 13325ft 357kts
02-Feb-18 19:04 40.615088 -112.065414 14 12251ft 347kts
02-Feb-18 19:05 40.708900 -112.071489 354 11616ft 325kts
02-Feb-18 19:06 40.789137 -112.082098 353 11499ft 263kts
02-Feb-18 19:07 40.858056 -112.091225 354 10992ft 245kts
02-Feb-18 19:08 40.924440 -112.099951 354 10986ft 240kts
02-Feb-18 19:09 40.991547 -112.108775 354 10361ft 245kts
02-Feb-18 19:10 41.057829 -112.104546 43 9041ft 240kts
02-Feb-18 19:11 41.045900 -112.036221 156 7886ft 226kts
02-Feb-18 19:12 40.983876 -112.019937 174 6963ft 230kts
02-Feb-18 19:13 40.921438 -112.012541 175 6523ft 214kts
02-Feb-18 19:14 40.871642 -112.006727 175 5502ft 155kts
02-Feb-18 19:15 40.831818 -112.002103 175 4738ft 143kts
02-Feb-18 19:16 40.794632 -111.997765 175 4236ft 111kts
02-Feb-18 19:17 40.781115 -111.994618 116 4236ft 13kts
02-Feb-18 19:18 40.784420 -111.993436 355 4236ft 24kts
02-Feb-18 19:19 40.791018 -111.993591 85 4236ft 11kts
02-Feb-18 19:20 40.791426 -111.987100 84 4236ft 20kts
02-Feb-18 19:21 40.790714 -111.982095 175 4236ft 11kts
02-Feb-18 19:22 40.788494 -111.979852 198 4236ft 8kts
02-Feb-18 19:23 40.788512 -111.980788 283 4236ft 0kts
02-Feb-18 19:24 40.788512 -111.980788 283 4236ft 0kts
02-Feb-18 19:25 40.788512 -111.980788 283 4236ft 0kts
02-Feb-18 19:26 40.788512 -111.980788 283 4236ft 0kts
02-Feb-18 19:27 40.788512 -111.980788 283 4236ft 0kts
02-Feb-18 19:28 40.788512 -111.980788 283 4236ft 0kts
02-Feb-18 19:29 40.788512 -111.980788 283 4236ft 0kts
02-Feb-18 19:30 40.788512 -111.980788 283 4236ft 0kts
02-Feb-18 19:31 40.788512 -111.980788 283 4236ft 0kts

Navigation Log

Ident Type
Flight plan parsing failed, navigation log unavailable